sensor_id;sensor_type;location;lat;lon;timestamp;P1;durP1;ratioP1;P2;durP2;ratioP2
75584;SDS011;64162;53.508;10.476;2023-02-20T00:00:44;4.45;;;0.73;;
75584;SDS011;64162;53.508;10.476;2023-02-20T00:03:12;1.95;;;0.00;;
75584;SDS011;64162;53.508;10.476;2023-02-20T00:05:40;4.97;;;0.32;;
75584;SDS011;64162;53.508;10.476;2023-02-20T00:08:07;3.75;;;0.57;;
75584;SDS011;64162;53.508;10.476;2023-02-20T00:10:33;3.80;;;0.88;;
75584;SDS011;64162;53.508;10.476;2023-02-20T00:13:00;4.35;;;0.40;;
75584;SDS011;64162;53.508;10.476;2023-02-20T00:15:26;3.00;;;0.32;;
75584;SDS011;64162;53.508;10.476;2023-02-20T00:17:53;4.78;;;0.28;;
75584;SDS011;64162;53.508;10.476;2023-02-20T00:20:20;2.42;;;0.15;;
75584;SDS011;64162;53.508;10.476;2023-02-20T00:22:51;6.72;;;0.20;;
75584;SDS011;64162;53.508;10.476;2023-02-20T00:25:18;5.43;;;0.40;;
75584;SDS011;64162;53.508;10.476;2023-02-20T00:27:45;4.40;;;0.40;;
75584;SDS011;64162;53.508;10.476;2023-02-20T00:30:17;4.65;;;0.47;;
75584;SDS011;64162;53.508;10.476;2023-02-20T00:32:46;3.83;;;0.45;;
75584;SDS011;64162;53.508;10.476;2023-02-20T00:35:15;5.28;;;0.28;;
75584;SDS011;64162;53.508;10.476;2023-02-20T00:37:41;3.10;;;0.82;;
75584;SDS011;64162;53.508;10.476;2023-02-20T00:40:10;8.85;;;0.80;;
75584;SDS011;64162;53.508;10.476;2023-02-20T00:42:37;7.13;;;1.90;;
75584;SDS011;64162;53.508;10.476;2023-02-20T00:45:04;3.95;;;0.40;;
75584;SDS011;64162;53.508;10.476;2023-02-20T00:47:31;9.35;;;0.82;;
75584;SDS011;64162;53.508;10.476;2023-02-20T00:49:58;6.90;;;1.05;;
75584;SDS011;64162;53.508;10.476;2023-02-20T00:52:24;2.95;;;0.80;;
75584;SDS011;64162;53.508;10.476;2023-02-20T00:54:51;6.13;;;0.77;;
75584;SDS011;64162;53.508;10.476;2023-02-20T00:57:17;10.15;;;0.70;;
75584;SDS011;64162;53.508;10.476;2023-02-20T00:59:44;5.03;;;1.13;;
75584;SDS011;64162;53.508;10.476;2023-02-20T01:02:11;2.28;;;0.88;;
75584;SDS011;64162;53.508;10.476;2023-02-20T01:04:37;4.80;;;1.20;;
75584;SDS011;64162;53.508;10.476;2023-02-20T01:07:04;6.70;;;1.35;;
75584;SDS011;64162;53.508;10.476;2023-02-20T01:09:30;6.97;;;1.38;;
75584;SDS011;64162;53.508;10.476;2023-02-20T01:11:57;3.50;;;1.17;;
75584;SDS011;64162;53.508;10.476;2023-02-20T01:14:23;5.07;;;0.93;;
75584;SDS011;64162;53.508;10.476;2023-02-20T01:16:51;4.63;;;1.15;;
75584;SDS011;64162;53.508;10.476;2023-02-20T01:19:20;10.13;;;2.15;;
75584;SDS011;64162;53.508;10.476;2023-02-20T01:21:48;6.40;;;1.58;;
75584;SDS011;64162;53.508;10.476;2023-02-20T01:24:15;5.38;;;1.05;;
75584;SDS011;64162;53.508;10.476;2023-02-20T01:26:46;4.15;;;1.05;;
75584;SDS011;64162;53.508;10.476;2023-02-20T01:29:14;5.63;;;2.13;;
75584;SDS011;64162;53.508;10.476;2023-02-20T01:31:50;6.15;;;1.05;;
75584;SDS011;64162;53.508;10.476;2023-02-20T01:34:18;2.85;;;1.20;;
75584;SDS011;64162;53.508;10.476;2023-02-20T01:36:49;4.65;;;1.17;;
75584;SDS011;64162;53.508;10.476;2023-02-20T01:39:21;8.13;;;2.13;;
75584;SDS011;64162;53.508;10.476;2023-02-20T01:41:53;4.43;;;1.35;;
75584;SDS011;64162;53.508;10.476;2023-02-20T01:44:24;4.78;;;1.02;;
75584;SDS011;64162;53.508;10.476;2023-02-20T01:47:05;5.68;;;1.25;;
75584;SDS011;64162;53.508;10.476;2023-02-20T01:49:40;5.68;;;1.05;;
75584;SDS011;64162;53.508;10.476;2023-02-20T01:52:19;4.25;;;1.27;;
75584;SDS011;64162;53.508;10.476;2023-02-20T01:54:51;3.47;;;0.95;;
75584;SDS011;64162;53.508;10.476;2023-02-20T01:57:22;5.38;;;1.27;;
75584;SDS011;64162;53.508;10.476;2023-02-20T01:59:51;5.90;;;1.02;;
75584;SDS011;64162;53.508;10.476;2023-02-20T02:02:23;2.60;;;0.43;;
75584;SDS011;64162;53.508;10.476;2023-02-20T02:04:57;5.30;;;0.75;;
75584;SDS011;64162;53.508;10.476;2023-02-20T02:07:24;3.42;;;0.75;;
75584;SDS011;64162;53.508;10.476;2023-02-20T02:09:52;6.45;;;0.57;;
75584;SDS011;64162;53.508;10.476;2023-02-20T02:12:27;8.88;;;1.27;;
75584;SDS011;64162;53.508;10.476;2023-02-20T02:14:54;3.65;;;1.02;;
75584;SDS011;64162;53.508;10.476;2023-02-20T02:17:24;4.72;;;0.40;;
75584;SDS011;64162;53.508;10.476;2023-02-20T02:20:24;5.53;;;0.60;;
75584;SDS011;64162;53.508;10.476;2023-02-20T02:26:01;9.00;;;0.65;;
75584;SDS011;64162;53.508;10.476;2023-02-20T02:34:36;4.90;;;0.65;;
75584;SDS011;64162;53.508;10.476;2023-02-20T02:37:23;4.35;;;1.20;;
75584;SDS011;64162;53.508;10.476;2023-02-20T02:40:00;3.55;;;0.43;;
75584;SDS011;64162;53.508;10.476;2023-02-20T02:43:00;3.13;;;0.45;;
75584;SDS011;64162;53.508;10.476;2023-02-20T02:48:27;2.95;;;0.45;;
75584;SDS011;64162;53.508;10.476;2023-02-20T02:51:12;6.18;;;0.98;;
75584;SDS011;64162;53.508;10.476;2023-02-20T02:54:03;4.88;;;0.77;;
75584;SDS011;64162;53.508;10.476;2023-02-20T02:56:32;4.57;;;0.98;;
75584;SDS011;64162;53.508;10.476;2023-02-20T02:59:00;6.93;;;0.75;;
75584;SDS011;64162;53.508;10.476;2023-02-20T03:01:27;7.60;;;0.68;;
75584;SDS011;64162;53.508;10.476;2023-02-20T03:03:57;4.93;;;1.25;;
75584;SDS011;64162;53.508;10.476;2023-02-20T03:06:26;5.43;;;1.15;;
75584;SDS011;64162;53.508;10.476;2023-02-20T03:09:23;5.13;;;0.50;;
75584;SDS011;64162;53.508;10.476;2023-02-20T03:11:58;5.00;;;0.43;;
75584;SDS011;64162;53.508;10.476;2023-02-20T03:15:04;4.30;;;0.80;;
75584;SDS011;64162;53.508;10.476;2023-02-20T03:18:09;5.70;;;0.80;;
75584;SDS011;64162;53.508;10.476;2023-02-20T03:20:55;4.13;;;0.85;;
75584;SDS011;64162;53.508;10.476;2023-02-20T03:23:32;4.47;;;1.08;;
75584;SDS011;64162;53.508;10.476;2023-02-20T03:26:04;10.93;;;1.45;;
75584;SDS011;64162;53.508;10.476;2023-02-20T03:28:47;4.72;;;1.02;;
75584;SDS011;64162;53.508;10.476;2023-02-20T03:34:15;6.32;;;1.05;;
75584;SDS011;64162;53.508;10.476;2023-02-20T03:37:17;5.35;;;1.30;;
75584;SDS011;64162;53.508;10.476;2023-02-20T03:40:06;4.78;;;0.82;;
75584;SDS011;64162;53.508;10.476;2023-02-20T03:42:58;5.43;;;2.05;;
75584;SDS011;64162;53.508;10.476;2023-02-20T03:45:49;6.80;;;1.27;;
75584;SDS011;64162;53.508;10.476;2023-02-20T03:48:19;6.15;;;1.50;;
75584;SDS011;64162;53.508;10.476;2023-02-20T03:50:51;5.78;;;1.40;;
75584;SDS011;64162;53.508;10.476;2023-02-20T03:53:51;5.57;;;0.93;;
75584;SDS011;64162;53.508;10.476;2023-02-20T03:56:21;7.97;;;1.50;;
75584;SDS011;64162;53.508;10.476;2023-02-20T03:58:57;8.25;;;1.52;;
75584;SDS011;64162;53.508;10.476;2023-02-20T04:01:29;5.53;;;1.55;;
75584;SDS011;64162;53.508;10.476;2023-02-20T04:03:59;7.90;;;2.47;;
75584;SDS011;64162;53.508;10.476;2023-02-20T04:06:27;7.13;;;1.48;;
75584;SDS011;64162;53.508;10.476;2023-02-20T04:09:01;6.35;;;1.52;;
75584;SDS011;64162;53.508;10.476;2023-02-20T04:11:46;5.55;;;1.67;;
75584;SDS011;64162;53.508;10.476;2023-02-20T04:14:18;8.38;;;2.05;;
75584;SDS011;64162;53.508;10.476;2023-02-20T04:16:51;6.35;;;1.70;;
75584;SDS011;64162;53.508;10.476;2023-02-20T04:19:21;7.32;;;2.08;;
75584;SDS011;64162;53.508;10.476;2023-02-20T04:21:50;6.50;;;2.05;;
75584;SDS011;64162;53.508;10.476;2023-02-20T04:24:24;7.60;;;1.70;;
75584;SDS011;64162;53.508;10.476;2023-02-20T04:26:57;7.63;;;5.57;;
75584;SDS011;64162;53.508;10.476;2023-02-20T04:29:24;6.20;;;1.27;;
75584;SDS011;64162;53.508;10.476;2023-02-20T04:31:53;9.13;;;1.23;;
75584;SDS011;64162;53.508;10.476;2023-02-20T04:34:24;7.80;;;2.63;;
75584;SDS011;64162;53.508;10.476;2023-02-20T04:36:52;9.15;;;2.28;;
75584;SDS011;64162;53.508;10.476;2023-02-20T04:39:30;7.72;;;2.33;;
75584;SDS011;64162;53.508;10.476;2023-02-20T04:41:56;6.38;;;1.75;;
75584;SDS011;64162;53.508;10.476;2023-02-20T04:44:23;8.90;;;2.35;;
75584;SDS011;64162;53.508;10.476;2023-02-20T04:47:06;9.90;;;3.47;;
75584;SDS011;64162;53.508;10.476;2023-02-20T04:49:36;8.88;;;5.32;;
75584;SDS011;64162;53.508;10.476;2023-02-20T04:52:05;9.45;;;2.97;;
75584;SDS011;64162;53.508;10.476;2023-02-20T04:54:32;10.75;;;2.55;;
75584;SDS011;64162;53.508;10.476;2023-02-20T04:57:01;6.10;;;1.98;;
75584;SDS011;64162;53.508;10.476;2023-02-20T04:59:27;9.48;;;3.90;;
75584;SDS011;64162;53.508;10.476;2023-02-20T05:01:54;7.57;;;3.08;;
75584;SDS011;64162;53.508;10.476;2023-02-20T05:04:21;14.40;;;4.40;;
75584;SDS011;64162;53.508;10.476;2023-02-20T05:06:49;9.48;;;2.80;;
75584;SDS011;64162;53.508;10.476;2023-02-20T05:09:18;11.05;;;3.25;;
75584;SDS011;64162;53.508;10.476;2023-02-20T05:11:46;5.05;;;2.03;;
75584;SDS011;64162;53.508;10.476;2023-02-20T05:14:13;6.70;;;2.25;;
75584;SDS011;64162;53.508;10.476;2023-02-20T05:16:40;9.02;;;2.20;;
75584;SDS011;64162;53.508;10.476;2023-02-20T05:19:07;9.35;;;3.35;;
75584;SDS011;64162;53.508;10.476;2023-02-20T05:21:34;12.82;;;3.38;;
75584;SDS011;64162;53.508;10.476;2023-02-20T05:24:19;11.00;;;5.20;;
75584;SDS011;64162;53.508;10.476;2023-02-20T05:26:46;9.52;;;2.97;;
75584;SDS011;64162;53.508;10.476;2023-02-20T05:29:12;11.18;;;5.40;;
75584;SDS011;64162;53.508;10.476;2023-02-20T05:31:39;12.38;;;3.30;;
75584;SDS011;64162;53.508;10.476;2023-02-20T05:34:07;11.75;;;3.22;;
75584;SDS011;64162;53.508;10.476;2023-02-20T05:36:34;14.20;;;3.72;;
75584;SDS011;64162;53.508;10.476;2023-02-20T05:39:00;9.23;;;4.30;;
75584;SDS011;64162;53.508;10.476;2023-02-20T05:41:27;12.30;;;3.92;;
75584;SDS011;64162;53.508;10.476;2023-02-20T05:43:54;6.38;;;1.88;;
75584;SDS011;64162;53.508;10.476;2023-02-20T05:46:24;10.10;;;3.28;;
75584;SDS011;64162;53.508;10.476;2023-02-20T05:48:51;14.25;;;5.78;;
75584;SDS011;64162;53.508;10.476;2023-02-20T05:51:22;13.13;;;4.65;;
75584;SDS011;64162;53.508;10.476;2023-02-20T05:53:50;12.82;;;4.97;;
75584;SDS011;64162;53.508;10.476;2023-02-20T05:56:17;9.27;;;3.00;;
75584;SDS011;64162;53.508;10.476;2023-02-20T05:58:44;14.35;;;4.72;;
75584;SDS011;64162;53.508;10.476;2023-02-20T06:01:16;15.30;;;5.65;;
75584;SDS011;64162;53.508;10.476;2023-02-20T06:03:52;16.08;;;6.88;;
75584;SDS011;64162;53.508;10.476;2023-02-20T06:06:19;17.55;;;5.32;;
75584;SDS011;64162;53.508;10.476;2023-02-20T06:08:46;15.43;;;6.30;;
75584;SDS011;64162;53.508;10.476;2023-02-20T06:11:13;14.23;;;7.43;;
75584;SDS011;64162;53.508;10.476;2023-02-20T06:16:11;13.50;;;4.32;;
75584;SDS011;64162;53.508;10.476;2023-02-20T06:18:40;16.13;;;5.65;;
75584;SDS011;64162;53.508;10.476;2023-02-20T06:23:37;13.45;;;4.70;;
75584;SDS011;64162;53.508;10.476;2023-02-20T06:26:05;16.77;;;4.70;;
75584;SDS011;64162;53.508;10.476;2023-02-20T06:28:33;15.57;;;4.97;;
75584;SDS011;64162;53.508;10.476;2023-02-20T06:31:00;15.07;;;6.43;;
75584;SDS011;64162;53.508;10.476;2023-02-20T06:33:27;13.93;;;4.60;;
75584;SDS011;64162;53.508;10.476;2023-02-20T06:35:54;15.07;;;5.28;;
75584;SDS011;64162;53.508;10.476;2023-02-20T06:38:20;7.60;;;2.85;;
75584;SDS011;64162;53.508;10.476;2023-02-20T06:40:47;13.18;;;5.60;;
75584;SDS011;64162;53.508;10.476;2023-02-20T06:43:13;15.38;;;5.60;;
75584;SDS011;64162;53.508;10.476;2023-02-20T06:45:40;13.70;;;6.20;;
75584;SDS011;64162;53.508;10.476;2023-02-20T06:48:06;16.25;;;5.57;;
75584;SDS011;64162;53.508;10.476;2023-02-20T06:50:33;13.13;;;4.43;;
75584;SDS011;64162;53.508;10.476;2023-02-20T06:53:00;14.98;;;4.88;;
75584;SDS011;64162;53.508;10.476;2023-02-20T06:55:26;14.98;;;6.57;;
75584;SDS011;64162;53.508;10.476;2023-02-20T06:57:53;17.98;;;7.30;;
75584;SDS011;64162;53.508;10.476;2023-02-20T07:00:19;19.35;;;5.20;;
75584;SDS011;64162;53.508;10.476;2023-02-20T07:02:46;13.38;;;4.68;;
75584;SDS011;64162;53.508;10.476;2023-02-20T07:05:12;19.63;;;5.63;;
75584;SDS011;64162;53.508;10.476;2023-02-20T07:07:39;14.52;;;6.03;;
75584;SDS011;64162;53.508;10.476;2023-02-20T07:10:06;11.15;;;4.35;;
75584;SDS011;64162;53.508;10.476;2023-02-20T07:12:33;13.27;;;5.63;;
75584;SDS011;64162;53.508;10.476;2023-02-20T07:15:03;17.55;;;5.93;;
75584;SDS011;64162;53.508;10.476;2023-02-20T07:17:32;15.60;;;6.80;;
75584;SDS011;64162;53.508;10.476;2023-02-20T07:19:58;12.48;;;5.50;;
75584;SDS011;64162;53.508;10.476;2023-02-20T07:22:25;13.23;;;10.00;;
75584;SDS011;64162;53.508;10.476;2023-02-20T07:24:51;15.13;;;7.05;;
75584;SDS011;64162;53.508;10.476;2023-02-20T07:27:18;15.50;;;6.45;;
75584;SDS011;64162;53.508;10.476;2023-02-20T07:29:46;13.15;;;7.43;;
75584;SDS011;64162;53.508;10.476;2023-02-20T07:34:42;15.95;;;7.18;;
75584;SDS011;64162;53.508;10.476;2023-02-20T07:37:19;13.45;;;6.88;;
75584;SDS011;64162;53.508;10.476;2023-02-20T07:39:46;17.40;;;8.60;;
75584;SDS011;64162;53.508;10.476;2023-02-20T07:42:13;19.77;;;8.82;;
75584;SDS011;64162;53.508;10.476;2023-02-20T07:44:50;17.98;;;9.40;;
75584;SDS011;64162;53.508;10.476;2023-02-20T07:47:16;18.33;;;9.38;;
75584;SDS011;64162;53.508;10.476;2023-02-20T07:49:43;21.02;;;8.90;;
75584;SDS011;64162;53.508;10.476;2023-02-20T07:52:09;19.40;;;9.70;;
75584;SDS011;64162;53.508;10.476;2023-02-20T07:54:36;15.13;;;8.23;;
75584;SDS011;64162;53.508;10.476;2023-02-20T07:57:03;21.27;;;10.95;;
75584;SDS011;64162;53.508;10.476;2023-02-20T07:59:29;13.77;;;7.75;;
75584;SDS011;64162;53.508;10.476;2023-02-20T08:01:56;21.55;;;11.57;;
75584;SDS011;64162;53.508;10.476;2023-02-20T08:04:22;16.73;;;8.63;;
75584;SDS011;64162;53.508;10.476;2023-02-20T08:06:49;25.25;;;10.30;;
75584;SDS011;64162;53.508;10.476;2023-02-20T08:09:15;19.45;;;9.98;;
75584;SDS011;64162;53.508;10.476;2023-02-20T08:11:42;14.63;;;6.28;;
75584;SDS011;64162;53.508;10.476;2023-02-20T08:14:13;15.70;;;9.13;;
75584;SDS011;64162;53.508;10.476;2023-02-20T08:16:40;21.15;;;10.05;;
75584;SDS011;64162;53.508;10.476;2023-02-20T08:19:07;17.67;;;9.07;;
75584;SDS011;64162;53.508;10.476;2023-02-20T08:21:33;19.25;;;11.75;;
75584;SDS011;64162;53.508;10.476;2023-02-20T08:24:00;19.38;;;9.98;;
75584;SDS011;64162;53.508;10.476;2023-02-20T08:26:27;25.05;;;11.52;;
75584;SDS011;64162;53.508;10.476;2023-02-20T08:28:54;25.27;;;11.73;;
75584;SDS011;64162;53.508;10.476;2023-02-20T08:31:20;19.15;;;9.38;;
75584;SDS011;64162;53.508;10.476;2023-02-20T08:33:57;19.90;;;10.32;;
75584;SDS011;64162;53.508;10.476;2023-02-20T08:36:23;27.98;;;14.63;;
75584;SDS011;64162;53.508;10.476;2023-02-20T08:38:50;21.45;;;10.45;;
75584;SDS011;64162;53.508;10.476;2023-02-20T08:41:16;24.73;;;11.77;;
75584;SDS011;64162;53.508;10.476;2023-02-20T08:43:43;21.33;;;10.75;;
75584;SDS011;64162;53.508;10.476;2023-02-20T08:46:10;22.60;;;11.43;;
75584;SDS011;64162;53.508;10.476;2023-02-20T08:48:37;24.17;;;11.02;;
75584;SDS011;64162;53.508;10.476;2023-02-20T08:51:04;18.65;;;9.00;;
75584;SDS011;64162;53.508;10.476;2023-02-20T08:53:32;21.73;;;11.13;;
75584;SDS011;64162;53.508;10.476;2023-02-20T08:55:59;26.40;;;11.82;;
75584;SDS011;64162;53.508;10.476;2023-02-20T08:58:26;26.05;;;12.07;;
75584;SDS011;64162;53.508;10.476;2023-02-20T09:00:52;23.20;;;11.82;;
75584;SDS011;64162;53.508;10.476;2023-02-20T09:03:19;16.77;;;7.32;;
75584;SDS011;64162;53.508;10.476;2023-02-20T09:05:46;22.75;;;12.05;;
75584;SDS011;64162;53.508;10.476;2023-02-20T09:08:13;29.85;;;12.77;;
75584;SDS011;64162;53.508;10.476;2023-02-20T09:10:39;23.02;;;11.95;;
75584;SDS011;64162;53.508;10.476;2023-02-20T09:13:06;27.23;;;12.43;;
75584;SDS011;64162;53.508;10.476;2023-02-20T09:15:32;26.17;;;12.70;;
75584;SDS011;64162;53.508;10.476;2023-02-20T09:18:07;28.00;;;12.27;;
75584;SDS011;64162;53.508;10.476;2023-02-20T09:20:37;32.83;;;14.35;;
75584;SDS011;64162;53.508;10.476;2023-02-20T09:23:04;21.27;;;8.63;;
75584;SDS011;64162;53.508;10.476;2023-02-20T09:25:32;33.83;;;15.13;;
75584;SDS011;64162;53.508;10.476;2023-02-20T09:27:58;36.95;;;16.55;;
75584;SDS011;64162;53.508;10.476;2023-02-20T09:30:25;37.88;;;16.90;;
75584;SDS011;64162;53.508;10.476;2023-02-20T09:32:52;32.10;;;14.73;;
75584;SDS011;64162;53.508;10.476;2023-02-20T09:35:21;38.95;;;15.23;;
75584;SDS011;64162;53.508;10.476;2023-02-20T09:37:52;26.00;;;12.00;;
75584;SDS011;64162;53.508;10.476;2023-02-20T09:40:20;37.85;;;15.93;;
75584;SDS011;64162;53.508;10.476;2023-02-20T09:45:40;28.27;;;12.02;;
75584;SDS011;64162;53.508;10.476;2023-02-20T09:48:55;42.35;;;17.58;;
75584;SDS011;64162;53.508;10.476;2023-02-20T09:51:33;41.30;;;15.68;;
75584;SDS011;64162;53.508;10.476;2023-02-20T09:54:07;33.88;;;13.55;;
75584;SDS011;64162;53.508;10.476;2023-02-20T09:56:38;43.47;;;16.08;;
75584;SDS011;64162;53.508;10.476;2023-02-20T10:01:50;41.53;;;15.13;;
75584;SDS011;64162;53.508;10.476;2023-02-20T10:04:21;24.23;;;11.25;;
75584;SDS011;64162;53.508;10.476;2023-02-20T10:06:53;42.70;;;17.08;;
75584;SDS011;64162;53.508;10.476;2023-02-20T10:09:25;37.80;;;14.20;;
75584;SDS011;64162;53.508;10.476;2023-02-20T10:17:49;41.08;;;15.85;;
75584;SDS011;64162;53.508;10.476;2023-02-20T10:23:31;46.65;;;16.95;;
75584;SDS011;64162;53.508;10.476;2023-02-20T10:26:00;56.28;;;19.98;;
75584;SDS011;64162;53.508;10.476;2023-02-20T10:28:30;70.50;;;20.20;;
75584;SDS011;64162;53.508;10.476;2023-02-20T10:30:57;47.55;;;14.18;;
75584;SDS011;64162;53.508;10.476;2023-02-20T10:33:41;48.50;;;18.02;;
75584;SDS011;64162;53.508;10.476;2023-02-20T10:36:16;44.72;;;16.98;;
75584;SDS011;64162;53.508;10.476;2023-02-20T10:38:53;38.92;;;14.68;;
75584;SDS011;64162;53.508;10.476;2023-02-20T10:44:31;42.28;;;14.02;;
75584;SDS011;64162;53.508;10.476;2023-02-20T10:47:15;48.13;;;15.65;;
75584;SDS011;64162;53.508;10.476;2023-02-20T10:49:55;55.33;;;17.92;;
75584;SDS011;64162;53.508;10.476;2023-02-20T10:52:34;46.83;;;16.35;;
75584;SDS011;64162;53.508;10.476;2023-02-20T10:55:08;45.03;;;15.85;;
75584;SDS011;64162;53.508;10.476;2023-02-20T10:57:43;37.10;;;13.15;;
75584;SDS011;64162;53.508;10.476;2023-02-20T11:00:19;41.72;;;13.98;;
75584;SDS011;64162;53.508;10.476;2023-02-20T11:02:53;45.72;;;14.88;;
75584;SDS011;64162;53.508;10.476;2023-02-20T11:05:27;48.53;;;15.40;;
75584;SDS011;64162;53.508;10.476;2023-02-20T11:07:59;34.83;;;14.18;;
75584;SDS011;64162;53.508;10.476;2023-02-20T11:10:26;45.47;;;15.55;;
75584;SDS011;64162;53.508;10.476;2023-02-20T11:12:55;39.40;;;13.63;;
75584;SDS011;64162;53.508;10.476;2023-02-20T11:15:27;31.65;;;12.15;;
75584;SDS011;64162;53.508;10.476;2023-02-20T11:17:56;40.70;;;13.82;;
75584;SDS011;64162;53.508;10.476;2023-02-20T11:22:57;33.90;;;13.15;;
75584;SDS011;64162;53.508;10.476;2023-02-20T11:25:30;40.58;;;15.05;;
75584;SDS011;64162;53.508;10.476;2023-02-20T11:30:40;26.88;;;9.38;;
75584;SDS011;64162;53.508;10.476;2023-02-20T11:33:18;28.80;;;13.73;;
75584;SDS011;64162;53.508;10.476;2023-02-20T11:36:12;27.17;;;11.40;;
75584;SDS011;64162;53.508;10.476;2023-02-20T11:38:45;34.97;;;11.52;;
75584;SDS011;64162;53.508;10.476;2023-02-20T11:46:31;23.52;;;9.05;;
75584;SDS011;64162;53.508;10.476;2023-02-20T11:48:59;18.75;;;8.38;;
75584;SDS011;64162;53.508;10.476;2023-02-20T11:54:06;19.17;;;6.22;;
75584;SDS011;64162;53.508;10.476;2023-02-20T11:59:24;9.85;;;4.47;;
75584;SDS011;64162;53.508;10.476;2023-02-20T12:02:09;17.13;;;6.40;;
75584;SDS011;64162;53.508;10.476;2023-02-20T12:04:43;12.70;;;5.20;;
75584;SDS011;64162;53.508;10.476;2023-02-20T12:12:20;7.85;;;2.55;;
75584;SDS011;64162;53.508;10.476;2023-02-20T12:14:49;12.88;;;4.15;;
75584;SDS011;64162;53.508;10.476;2023-02-20T12:17:22;10.20;;;3.80;;
75584;SDS011;64162;53.508;10.476;2023-02-20T12:20:10;10.10;;;2.15;;
75584;SDS011;64162;53.508;10.476;2023-02-20T12:22:57;16.10;;;3.70;;
75584;SDS011;64162;53.508;10.476;2023-02-20T12:25:54;8.10;;;2.88;;
75584;SDS011;64162;53.508;10.476;2023-02-20T12:28:38;8.48;;;3.22;;
75584;SDS011;64162;53.508;10.476;2023-02-20T12:31:26;8.88;;;1.98;;
75584;SDS011;64162;53.508;10.476;2023-02-20T12:40:29;6.95;;;2.00;;
75584;SDS011;64162;53.508;10.476;2023-02-20T12:51:48;7.05;;;2.85;;
75584;SDS011;64162;53.508;10.476;2023-02-20T12:59:56;6.45;;;2.05;;
75584;SDS011;64162;53.508;10.476;2023-02-20T13:02:32;5.22;;;1.27;;
75584;SDS011;64162;53.508;10.476;2023-02-20T13:05:08;6.47;;;1.98;;
75584;SDS011;64162;53.508;10.476;2023-02-20T13:07:53;6.07;;;2.22;;
75584;SDS011;64162;53.508;10.476;2023-02-20T13:12:51;6.75;;;2.50;;
75584;SDS011;64162;53.508;10.476;2023-02-20T13:22:58;4.55;;;0.90;;
75584;SDS011;64162;53.508;10.476;2023-02-20T13:25:30;5.15;;;1.67;;
75584;SDS011;64162;53.508;10.476;2023-02-20T13:30:38;4.60;;;1.02;;
75584;SDS011;64162;53.508;10.476;2023-02-20T13:33:16;3.17;;;1.17;;
75584;SDS011;64162;53.508;10.476;2023-02-20T13:35:54;7.47;;;1.38;;
75584;SDS011;64162;53.508;10.476;2023-02-20T13:41:02;7.53;;;2.50;;
75584;SDS011;64162;53.508;10.476;2023-02-20T13:43:36;3.75;;;1.70;;
75584;SDS011;64162;53.508;10.476;2023-02-20T13:46:08;4.40;;;1.08;;
75584;SDS011;64162;53.508;10.476;2023-02-20T13:48:40;6.35;;;1.88;;
75584;SDS011;64162;53.508;10.476;2023-02-20T13:56:28;6.10;;;2.20;;
75584;SDS011;64162;53.508;10.476;2023-02-20T13:59:09;13.73;;;2.33;;
75584;SDS011;64162;53.508;10.476;2023-02-20T14:01:56;7.72;;;2.25;;
75584;SDS011;64162;53.508;10.476;2023-02-20T14:04:27;12.20;;;4.22;;
75584;SDS011;64162;53.508;10.476;2023-02-20T14:06:57;9.13;;;3.13;;
75584;SDS011;64162;53.508;10.476;2023-02-20T14:09:26;5.47;;;2.38;;
75584;SDS011;64162;53.508;10.476;2023-02-20T14:12:12;9.27;;;1.10;;
75584;SDS011;64162;53.508;10.476;2023-02-20T14:14:43;9.02;;;4.90;;
75584;SDS011;64162;53.508;10.476;2023-02-20T14:17:15;12.85;;;2.60;;
75584;SDS011;64162;53.508;10.476;2023-02-20T14:19:45;5.57;;;2.58;;
75584;SDS011;64162;53.508;10.476;2023-02-20T14:22:20;10.40;;;1.75;;
75584;SDS011;64162;53.508;10.476;2023-02-20T14:27:47;7.38;;;1.40;;
75584;SDS011;64162;53.508;10.476;2023-02-20T14:30:17;10.00;;;2.67;;
75584;SDS011;64162;53.508;10.476;2023-02-20T14:32:53;5.75;;;3.30;;
75584;SDS011;64162;53.508;10.476;2023-02-20T14:41:39;6.50;;;1.52;;
75584;SDS011;64162;53.508;10.476;2023-02-20T14:43:59;6.82;;;2.15;;
75584;SDS011;64162;53.508;10.476;2023-02-20T14:46:34;6.38;;;3.28;;
75584;SDS011;64162;53.508;10.476;2023-02-20T14:51:32;6.97;;;1.88;;
75584;SDS011;64162;53.508;10.476;2023-02-20T14:54:01;10.90;;;5.00;;
75584;SDS011;64162;53.508;10.476;2023-02-20T14:56:39;10.57;;;3.40;;
75584;SDS011;64162;53.508;10.476;2023-02-20T15:01:58;5.32;;;2.58;;
75584;SDS011;64162;53.508;10.476;2023-02-20T15:04:26;15.45;;;4.47;;
75584;SDS011;64162;53.508;10.476;2023-02-20T15:06:59;7.65;;;3.30;;
75584;SDS011;64162;53.508;10.476;2023-02-20T15:09:39;10.02;;;3.42;;
75584;SDS011;64162;53.508;10.476;2023-02-20T15:12:18;11.02;;;3.75;;
75584;SDS011;64162;53.508;10.476;2023-02-20T15:15:08;12.90;;;4.45;;
75584;SDS011;64162;53.508;10.476;2023-02-20T15:17:41;12.75;;;4.95;;
75584;SDS011;64162;53.508;10.476;2023-02-20T15:20:16;13.27;;;4.05;;
75584;SDS011;64162;53.508;10.476;2023-02-20T15:22:45;15.73;;;4.55;;
75584;SDS011;64162;53.508;10.476;2023-02-20T15:31:01;16.73;;;4.60;;
75584;SDS011;64162;53.508;10.476;2023-02-20T15:34:09;7.38;;;1.95;;
75584;SDS011;64162;53.508;10.476;2023-02-20T15:36:26;9.65;;;3.15;;
75584;SDS011;64162;53.508;10.476;2023-02-20T15:38:53;11.88;;;3.03;;
75584;SDS011;64162;53.508;10.476;2023-02-20T15:41:22;10.70;;;3.22;;
75584;SDS011;64162;53.508;10.476;2023-02-20T15:43:49;12.68;;;3.83;;
75584;SDS011;64162;53.508;10.476;2023-02-20T15:46:17;9.65;;;3.55;;
75584;SDS011;64162;53.508;10.476;2023-02-20T15:51:12;20.70;;;4.25;;
75584;SDS011;64162;53.508;10.476;2023-02-20T15:53:43;15.52;;;3.75;;
75584;SDS011;64162;53.508;10.476;2023-02-20T15:56:11;6.32;;;2.80;;
75584;SDS011;64162;53.508;10.476;2023-02-20T15:58:38;9.77;;;6.72;;
75584;SDS011;64162;53.508;10.476;2023-02-20T16:01:08;12.77;;;2.60;;
75584;SDS011;64162;53.508;10.476;2023-02-20T16:03:35;14.55;;;5.32;;
75584;SDS011;64162;53.508;10.476;2023-02-20T16:06:15;12.80;;;2.95;;
75584;SDS011;64162;53.508;10.476;2023-02-20T16:08:42;18.27;;;4.68;;
75584;SDS011;64162;53.508;10.476;2023-02-20T16:11:10;19.73;;;4.88;;
75584;SDS011;64162;53.508;10.476;2023-02-20T16:13:37;12.68;;;3.67;;
75584;SDS011;64162;53.508;10.476;2023-02-20T16:16:12;19.38;;;8.10;;
75584;SDS011;64162;53.508;10.476;2023-02-20T16:18:49;14.68;;;5.10;;
75584;SDS011;64162;53.508;10.476;2023-02-20T16:21:18;11.63;;;5.97;;
75584;SDS011;64162;53.508;10.476;2023-02-20T16:23:45;24.70;;;6.75;;
75584;SDS011;64162;53.508;10.476;2023-02-20T16:26:20;20.08;;;6.20;;
75584;SDS011;64162;53.508;10.476;2023-02-20T16:28:54;23.75;;;6.80;;
75584;SDS011;64162;53.508;10.476;2023-02-20T16:34:09;19.83;;;5.15;;
75584;SDS011;64162;53.508;10.476;2023-02-20T16:36:46;31.17;;;8.98;;
75584;SDS011;64162;53.508;10.476;2023-02-20T16:39:12;27.27;;;7.35;;
75584;SDS011;64162;53.508;10.476;2023-02-20T16:41:50;28.83;;;9.00;;
75584;SDS011;64162;53.508;10.476;2023-02-20T16:44:22;23.30;;;8.25;;
75584;SDS011;64162;53.508;10.476;2023-02-20T16:46:53;30.08;;;7.32;;
75584;SDS011;64162;53.508;10.476;2023-02-20T16:49:19;27.60;;;7.20;;
75584;SDS011;64162;53.508;10.476;2023-02-20T16:51:46;22.67;;;6.88;;
75584;SDS011;64162;53.508;10.476;2023-02-20T16:54:24;34.72;;;8.57;;
75584;SDS011;64162;53.508;10.476;2023-02-20T16:56:50;20.58;;;6.38;;
75584;SDS011;64162;53.508;10.476;2023-02-20T16:59:17;30.42;;;9.35;;